createdAt,value
2018-11-10T00:00:36.854Z,4.25
2018-11-10T00:03:07.017Z,4.18
2018-11-10T00:05:35.968Z,4.13
2018-11-10T00:08:04.971Z,4.17
2018-11-10T00:10:33.947Z,4.10
2018-11-10T00:13:02.880Z,4.11
2018-11-10T00:15:31.867Z,4.07
2018-11-10T00:18:00.801Z,4.08
2018-11-10T00:20:29.751Z,4.04
2018-11-10T00:22:58.686Z,4.02
2018-11-10T00:25:27.702Z,4.04
2018-11-10T00:27:56.622Z,4.03
2018-11-10T00:30:25.584Z,4.06
2018-11-10T00:32:54.549Z,4.04
2018-11-10T00:35:23.570Z,4.05
2018-11-10T00:37:52.534Z,4.06
2018-11-10T00:40:21.475Z,4.05
2018-11-10T00:42:50.438Z,4.07
2018-11-10T00:45:19.566Z,4.03
2018-11-10T00:47:48.558Z,4.07
2018-11-10T00:50:17.515Z,4.03
2018-11-10T00:52:46.475Z,4.02
2018-11-10T00:55:15.438Z,4.00
2018-11-10T00:57:44.391Z,4.03
2018-11-10T01:00:13.909Z,4.02
2018-11-10T01:02:44.050Z,4.00
2018-11-10T01:05:13.003Z,3.96
2018-11-10T01:07:42.154Z,3.97
2018-11-10T01:10:12.541Z,3.95
2018-11-10T01:12:41.685Z,3.92
2018-11-10T01:15:14.829Z,3.88
2018-11-10T01:17:44.389Z,3.84
2018-11-10T01:20:13.867Z,3.86
2018-11-10T01:22:42.848Z,3.84
2018-11-10T01:25:12.248Z,3.85
2018-11-10T01:27:41.225Z,3.83
2018-11-10T01:30:12.703Z,3.84
2018-11-10T01:32:41.786Z,3.86
2018-11-10T01:35:10.731Z,3.86
2018-11-10T01:37:39.699Z,3.87
2018-11-10T01:40:10.570Z,3.89
2018-11-10T01:42:39.531Z,3.94
2018-11-10T01:45:10.738Z,3.89
2018-11-10T01:47:39.860Z,3.83
2018-11-10T01:50:09.633Z,3.81
2018-11-10T01:52:38.577Z,3.76
2018-11-10T01:55:08.150Z,3.68
2018-11-10T01:57:37.085Z,3.65
2018-11-10T02:00:10.560Z,3.61
2018-11-10T02:02:39.527Z,3.63
2018-11-10T02:05:08.510Z,3.56
2018-11-10T02:07:37.519Z,3.53
2018-11-10T02:10:07.934Z,3.52
2018-11-10T02:12:36.911Z,3.51
2018-11-10T02:15:06.728Z,3.49
2018-11-10T02:17:35.687Z,3.50
2018-11-10T02:20:05.014Z,3.47
2018-11-10T02:22:34.058Z,3.48
2018-11-10T02:25:03.093Z,3.47
2018-11-10T02:27:32.044Z,3.41
2018-11-10T02:30:00.999Z,3.40
2018-11-10T02:32:29.925Z,3.40
2018-11-10T02:34:58.945Z,3.41
2018-11-10T02:37:27.898Z,3.39
2018-11-10T02:39:56.858Z,3.38
2018-11-10T02:42:25.812Z,3.36
2018-11-10T02:44:54.751Z,3.31
2018-11-10T02:47:23.734Z,3.28
2018-11-10T02:49:52.687Z,3.21
2018-11-10T02:52:21.674Z,3.22
2018-11-10T02:54:50.604Z,3.24
2018-11-10T02:57:19.527Z,3.27
2018-11-10T02:59:48.471Z,3.30
2018-11-10T03:02:17.414Z,3.31
2018-11-10T03:04:46.398Z,3.29
2018-11-10T03:07:15.505Z,3.32
2018-11-10T03:09:44.494Z,3.27
2018-11-10T03:12:13.445Z,3.32
2018-11-10T03:14:42.465Z,3.30
2018-11-10T03:17:11.410Z,3.29
2018-11-10T03:19:40.658Z,3.26
2018-11-10T03:22:09.599Z,3.19
2018-11-10T03:24:38.614Z,3.16
2018-11-10T03:27:07.547Z,3.17
2018-11-10T03:29:36.470Z,3.19
2018-11-10T03:32:05.538Z,3.15
2018-11-10T03:34:34.493Z,3.12
2018-11-10T03:37:03.487Z,3.12
2018-11-10T03:39:32.490Z,3.13
2018-11-10T03:42:01.436Z,3.11
2018-11-10T03:44:30.394Z,3.03
2018-11-10T03:46:59.344Z,3.07
2018-11-10T03:49:28.340Z,3.04
2018-11-10T03:51:57.264Z,3.03
2018-11-10T03:54:26.226Z,3.02
2018-11-10T03:56:55.166Z,2.98
2018-11-10T03:59:24.101Z,2.99
2018-11-10T04:01:53.068Z,2.93
2018-11-10T04:04:22.015Z,2.92
2018-11-10T04:06:51.052Z,2.90
2018-11-10T04:09:20.003Z,2.94
2018-11-10T04:11:48.935Z,3.00
2018-11-10T04:14:17.901Z,2.88
2018-11-10T04:16:46.900Z,2.86
2018-11-10T04:19:15.904Z,2.84
2018-11-10T04:21:44.884Z,2.81
2018-11-10T04:24:13.874Z,2.81
2018-11-10T04:26:42.819Z,2.82
2018-11-10T04:29:11.868Z,2.82
2018-11-10T04:31:40.785Z,2.85
2018-11-10T04:34:09.723Z,2.82
2018-11-10T04:36:38.700Z,2.86
2018-11-10T04:39:08.557Z,2.87
2018-11-10T04:41:37.618Z,2.83
2018-11-10T04:44:06.642Z,2.82
2018-11-10T04:46:35.583Z,2.81
2018-11-10T04:49:04.507Z,2.79
2018-11-10T04:51:33.464Z,2.79
2018-11-10T04:54:02.414Z,2.79
2018-11-10T04:56:31.353Z,2.81
2018-11-10T04:59:00.322Z,2.79
2018-11-10T05:01:29.367Z,2.81
2018-11-10T05:03:58.287Z,2.81
2018-11-10T05:06:27.206Z,2.80
2018-11-10T05:08:56.226Z,2.80
2018-11-10T05:11:25.155Z,2.75
2018-11-10T05:13:54.078Z,2.80
2018-11-10T05:16:23.059Z,2.80
2018-11-10T05:18:51.999Z,2.90
2018-11-10T05:21:21.006Z,2.95
2018-11-10T05:23:49.943Z,3.05
2018-11-10T05:26:18.919Z,3.10
2018-11-10T05:28:47.837Z,3.23
2018-11-10T05:31:16.861Z,3.27
2018-11-10T05:33:45.775Z,3.40
2018-11-10T05:36:14.707Z,3.53
2018-11-10T05:38:43.755Z,3.67
2018-11-10T05:41:12.718Z,3.84
2018-11-10T05:43:41.675Z,4.01
2018-11-10T05:46:10.614Z,4.14
2018-11-10T05:48:39.625Z,4.25
2018-11-10T05:51:08.591Z,4.39
2018-11-10T05:53:37.553Z,4.48
2018-11-10T05:56:07.796Z,4.63
2018-11-10T05:58:36.909Z,4.80
2018-11-10T06:01:06.641Z,4.91
2018-11-10T06:03:35.575Z,5.09
2018-11-10T06:06:04.556Z,5.22
2018-11-10T06:08:33.499Z,5.37
2018-11-10T06:11:02.482Z,5.50
2018-11-10T06:13:32.449Z,5.59
2018-11-10T06:16:01.436Z,5.68
2018-11-10T06:18:30.409Z,5.74
2018-11-10T06:20:59.371Z,5.92
2018-11-10T06:23:28.359Z,6.04
2018-11-10T06:25:57.366Z,6.15
2018-11-10T06:28:26.347Z,6.18
2018-11-10T06:30:55.294Z,6.16
2018-11-10T06:33:24.228Z,6.21
2018-11-10T06:35:53.194Z,6.26
2018-11-10T06:38:22.479Z,6.30
2018-11-10T06:40:51.425Z,6.38
2018-11-10T06:43:20.363Z,6.41
2018-11-10T06:45:49.334Z,6.51
2018-11-10T06:48:18.289Z,6.62
2018-11-10T06:50:47.266Z,6.79
2018-11-10T06:53:16.194Z,6.93
2018-11-10T06:55:45.155Z,7.03
2018-11-10T06:58:14.099Z,7.03
2018-11-10T07:00:43.022Z,7.11
2018-11-10T07:03:12.025Z,7.13
2018-11-10T07:05:40.949Z,7.14
2018-11-10T07:08:09.979Z,7.19
2018-11-10T07:10:38.933Z,7.29
2018-11-10T07:13:07.884Z,7.47
2018-11-10T07:15:36.862Z,7.62
2018-11-10T07:18:06.201Z,7.79
2018-11-10T07:20:35.164Z,7.89
2018-11-10T07:23:04.122Z,8.09
2018-11-10T07:25:33.064Z,8.37
2018-11-10T07:28:01.979Z,8.50
2018-11-10T07:30:30.968Z,8.64
2018-11-10T07:32:59.899Z,8.82
2018-11-10T07:35:28.836Z,9.02
2018-11-10T07:37:57.856Z,9.15
2018-11-10T07:40:26.778Z,9.41
2018-11-10T07:42:55.745Z,9.61
2018-11-10T07:45:24.657Z,9.63
2018-11-10T07:47:53.681Z,9.78
2018-11-10T07:50:22.602Z,9.99
2018-11-10T07:52:51.732Z,10.17
2018-11-10T07:55:20.696Z,10.24
2018-11-10T07:57:49.638Z,10.41
2018-11-10T08:00:19.260Z,10.53
2018-11-10T08:02:48.192Z,10.66
2018-11-10T08:05:17.535Z,10.78
2018-11-10T08:07:46.550Z,10.97
2018-11-10T08:10:16.035Z,11.22
2018-11-10T08:12:44.990Z,11.39
2018-11-10T08:15:15.071Z,11.33
2018-11-10T08:17:44.029Z,11.41
2018-11-10T08:20:13.583Z,11.61
2018-11-10T08:22:42.558Z,11.82
2018-11-10T08:25:13.222Z,11.93
2018-11-10T08:27:42.215Z,12.00
2018-11-10T08:30:12.754Z,12.05
2018-11-10T08:32:42.307Z,12.17
2018-11-10T08:35:12.211Z,12.28
2018-11-10T08:37:41.119Z,12.35
2018-11-10T08:40:13.014Z,12.59
2018-11-10T08:42:41.941Z,12.67
2018-11-10T08:45:12.140Z,12.81
2018-11-10T08:47:41.856Z,12.85
2018-11-10T08:50:12.096Z,12.82
2018-11-10T08:52:41.562Z,12.95
2018-11-10T08:55:11.402Z,13.09
2018-11-10T08:57:40.870Z,13.42
2018-11-10T09:00:10.669Z,13.78
2018-11-10T09:02:39.679Z,13.89
2018-11-10T09:05:09.716Z,13.92
2018-11-10T09:07:38.712Z,14.18
2018-11-10T09:10:09.151Z,14.59
2018-11-10T09:12:38.163Z,15.08
2018-11-10T09:15:08.976Z,15.72
2018-11-10T09:17:37.997Z,15.89
2018-11-10T09:20:09.176Z,15.90
2018-11-10T09:22:38.127Z,16.09
2018-11-10T09:25:09.261Z,16.25
2018-11-10T09:27:38.266Z,16.35
2018-11-10T09:30:08.026Z,16.65
2018-11-10T09:32:37.046Z,16.58
2018-11-10T09:35:06.595Z,16.80
2018-11-10T09:37:35.530Z,16.94
2018-11-10T09:40:04.619Z,17.11
2018-11-10T09:43:36.311Z,17.43
2018-11-10T09:46:05.386Z,17.67
2018-11-10T09:48:34.378Z,17.77
2018-11-10T09:51:03.421Z,17.89
2018-11-10T09:53:32.360Z,17.92
2018-11-10T09:56:01.306Z,18.00
2018-11-10T09:58:30.274Z,18.51
2018-11-10T10:00:59.316Z,18.63
2018-11-10T10:03:28.244Z,18.61
2018-11-10T10:05:57.195Z,18.84
2018-11-10T10:08:26.197Z,19.24
2018-11-10T10:10:55.135Z,19.44
2018-11-10T10:13:24.110Z,19.49
2018-11-10T10:15:53.106Z,20.13
2018-11-10T10:18:22.057Z,20.41
2018-11-10T10:20:51.038Z,20.86
2018-11-10T10:23:20.013Z,21.15
2018-11-10T10:25:49.016Z,20.95
2018-11-10T10:28:18.027Z,20.85
2018-11-10T10:30:46.996Z,20.56
2018-11-10T10:33:15.978Z,20.64
2018-11-10T10:35:44.919Z,20.21
2018-11-10T10:38:13.921Z,19.86
2018-11-10T10:40:42.927Z,19.63
2018-11-10T10:43:11.940Z,19.43
2018-11-10T10:45:40.883Z,19.68
2018-11-10T10:48:09.860Z,19.81
2018-11-10T10:50:38.845Z,20.41
2018-11-10T10:53:07.809Z,20.53
2018-11-10T10:55:36.798Z,20.84
2018-11-10T10:58:06.211Z,21.15
2018-11-10T11:00:40.258Z,21.74
2018-11-10T11:03:14.174Z,22.14
2018-11-10T11:05:44.734Z,22.24
2018-11-10T11:08:13.671Z,21.86
2018-11-10T11:10:42.675Z,21.95
2018-11-10T11:13:11.635Z,22.91
2018-11-10T11:15:40.715Z,23.24
2018-11-10T11:18:09.656Z,23.31
2018-11-10T11:20:38.596Z,23.55
2018-11-10T11:23:07.561Z,23.23
2018-11-10T11:25:36.527Z,22.40
2018-11-10T11:28:05.514Z,21.98
2018-11-10T11:30:34.487Z,21.61
2018-11-10T11:33:03.493Z,20.95
2018-11-10T11:35:32.484Z,20.14
2018-11-10T11:38:01.514Z,19.66
2018-11-10T11:40:30.483Z,19.31
2018-11-10T11:42:59.425Z,18.75
2018-11-10T11:45:28.406Z,18.44
2018-11-10T11:47:57.348Z,17.85
2018-11-10T11:50:26.398Z,17.58
2018-11-10T11:52:55.358Z,17.33
2018-11-10T11:55:24.391Z,17.23
2018-11-10T11:57:53.576Z,17.03
2018-11-10T12:00:22.443Z,16.96
2018-11-10T12:02:51.443Z,16.91
2018-11-10T12:05:20.435Z,16.90
2018-11-10T12:07:49.436Z,16.82
2018-11-10T12:10:18.567Z,16.76
2018-11-10T12:12:47.556Z,16.64
2018-11-10T12:15:17.313Z,16.62
2018-11-10T12:17:46.268Z,16.61
2018-11-10T12:20:16.109Z,16.58
2018-11-10T12:22:45.293Z,16.60
2018-11-10T12:25:14.827Z,16.52
2018-11-10T12:27:44.508Z,16.46
2018-11-10T12:30:13.572Z,16.43
2018-11-10T12:32:42.547Z,16.43
2018-11-10T12:35:13.059Z,16.34
2018-11-10T12:37:42.312Z,16.37
2018-11-10T12:40:12.683Z,16.34
2018-11-10T12:42:41.781Z,16.32
2018-11-10T12:45:11.853Z,16.24
2018-11-10T12:47:41.216Z,16.21
2018-11-10T12:50:11.887Z,16.23
2018-11-10T12:52:41.797Z,16.15
2018-11-10T12:55:12.049Z,16.12
2018-11-10T12:57:41.754Z,16.03
2018-11-10T13:00:12.072Z,16.03
2018-11-10T13:02:41.067Z,16.03
2018-11-10T13:05:11.156Z,15.91
2018-11-10T13:07:41.154Z,15.89
2018-11-10T13:10:10.934Z,15.83
2018-11-10T13:12:40.349Z,15.83
2018-11-10T13:15:09.714Z,15.80
2018-11-10T13:17:39.162Z,15.87
2018-11-10T13:20:11.443Z,15.83
2018-11-10T13:22:40.393Z,15.78
2018-11-10T13:25:10.355Z,15.76
2018-11-10T13:27:39.312Z,15.78
2018-11-10T13:30:09.871Z,15.74
2018-11-10T13:32:38.907Z,15.70
2018-11-10T13:35:08.867Z,15.61
2018-11-10T13:37:37.960Z,15.59
2018-11-10T13:40:07.775Z,15.55
2018-11-10T13:42:36.740Z,15.50
2018-11-10T13:45:06.484Z,15.39
2018-11-10T13:47:35.436Z,15.36
2018-11-10T13:50:04.472Z,15.24
2018-11-10T13:52:33.796Z,15.21
2018-11-10T13:55:02.429Z,15.12
2018-11-10T13:57:31.357Z,15.05
2018-11-10T14:00:00.376Z,14.99
2018-11-10T14:02:29.305Z,14.91
2018-11-10T14:04:58.254Z,14.81
2018-11-10T14:07:27.246Z,14.74
2018-11-10T14:09:56.165Z,14.68
2018-11-10T14:12:25.136Z,14.63
2018-11-10T14:14:54.063Z,14.53
2018-11-10T14:17:23.022Z,14.51
2018-11-10T14:19:51.946Z,14.42
2018-11-10T14:22:20.957Z,14.33
2018-11-10T14:24:49.909Z,14.28
2018-11-10T14:27:18.896Z,14.21
2018-11-10T14:29:47.844Z,14.14
2018-11-10T14:32:16.858Z,14.07
2018-11-10T14:34:45.823Z,14.02
2018-11-10T14:37:14.823Z,13.96
2018-11-10T14:39:43.814Z,13.85
2018-11-10T14:42:12.815Z,13.78
2018-11-10T14:44:41.775Z,13.69
2018-11-10T14:47:10.740Z,13.52
2018-11-10T14:49:39.653Z,13.46
2018-11-10T14:52:08.586Z,13.32
2018-11-10T14:54:37.525Z,13.21
2018-11-10T14:57:06.754Z,13.12
2018-11-10T14:59:35.712Z,12.99
2018-11-10T15:02:04.756Z,12.81
2018-11-10T15:04:33.701Z,12.64
2018-11-10T15:07:02.650Z,12.53
2018-11-10T15:09:31.599Z,12.41
2018-11-10T15:12:00.638Z,12.27
2018-11-10T15:14:29.533Z,12.05
2018-11-10T15:16:58.464Z,11.91
2018-11-10T15:19:27.483Z,11.81
2018-11-10T15:21:56.407Z,11.69
2018-11-10T15:24:25.390Z,11.55
2018-11-10T15:26:54.323Z,11.42
2018-11-10T15:29:23.282Z,11.26
2018-11-10T15:31:52.832Z,11.07
2018-11-10T15:34:21.784Z,10.91
2018-11-10T15:36:50.802Z,10.79
2018-11-10T15:39:19.730Z,10.69
2018-11-10T15:41:48.738Z,10.60
2018-11-10T15:44:17.682Z,10.55
2018-11-10T15:46:46.675Z,10.53
2018-11-10T15:49:15.624Z,10.47
2018-11-10T15:51:44.565Z,10.37
2018-11-10T15:54:13.499Z,10.26
2018-11-10T15:56:42.504Z,10.19
2018-11-10T15:59:11.483Z,10.15
2018-11-10T16:01:40.451Z,10.10
2018-11-10T16:04:09.463Z,9.96
2018-11-10T16:06:38.379Z,9.89
2018-11-10T16:09:10.260Z,9.78
2018-11-10T16:11:39.323Z,9.75
2018-11-10T16:14:08.395Z,9.68
2018-11-10T16:16:37.559Z,9.68
2018-11-10T16:19:06.695Z,9.64
2018-11-10T16:21:35.652Z,9.62
2018-11-10T16:24:04.603Z,9.58
2018-11-10T16:26:33.552Z,9.52
2018-11-10T16:29:02.504Z,9.49
2018-11-10T16:31:31.484Z,9.44
2018-11-10T16:34:00.449Z,9.41
2018-11-10T16:36:29.394Z,9.34
2018-11-10T16:38:58.364Z,9.28
2018-11-10T16:41:27.382Z,9.23
2018-11-10T16:43:56.347Z,9.14
2018-11-10T16:46:25.299Z,9.08
2018-11-10T16:48:54.315Z,9.09
2018-11-10T16:51:23.268Z,9.08
2018-11-10T16:53:52.222Z,9.06
2018-11-10T16:56:21.171Z,9.05
2018-11-10T16:58:50.359Z,9.07
2018-11-10T17:01:19.314Z,9.06
2018-11-10T17:03:48.396Z,9.04
2018-11-10T17:06:17.345Z,8.98
2018-11-10T17:08:46.344Z,8.88
2018-11-10T17:11:15.289Z,8.84
2018-11-10T17:13:44.232Z,8.80
2018-11-10T17:16:13.171Z,8.78
2018-11-10T17:18:42.126Z,8.72
2018-11-10T17:21:11.094Z,8.73
2018-11-10T17:23:40.080Z,8.70
2018-11-10T17:26:09.076Z,8.68
2018-11-10T17:28:38.039Z,8.64
2018-11-10T17:31:06.988Z,8.58
2018-11-10T17:33:35.951Z,8.52
2018-11-10T17:36:04.901Z,8.50
2018-11-10T17:38:33.869Z,8.51
2018-11-10T17:41:02.785Z,8.45
2018-11-10T17:43:31.787Z,8.43
2018-11-10T17:46:00.797Z,8.41
2018-11-10T17:48:29.806Z,8.35
2018-11-10T17:50:58.723Z,8.23
2018-11-10T17:53:27.688Z,8.11
2018-11-10T17:55:56.634Z,8.14
2018-11-10T17:58:26.666Z,8.25
2018-11-10T18:00:55.706Z,8.31
2018-11-10T18:03:24.692Z,8.29
2018-11-10T18:05:53.724Z,8.21
2018-11-10T18:08:22.665Z,8.23
2018-11-10T18:10:51.671Z,8.19
2018-11-10T18:13:20.626Z,8.11
2018-11-10T18:15:49.585Z,8.08
2018-11-10T18:18:18.599Z,8.03
2018-11-10T18:20:47.580Z,7.96
2018-11-10T18:23:16.578Z,7.92
2018-11-10T18:25:45.523Z,7.88
2018-11-10T18:28:14.532Z,7.88
2018-11-10T18:30:43.503Z,7.87
2018-11-10T18:33:14.076Z,7.81
2018-11-10T18:35:43.155Z,7.77
2018-11-10T18:38:12.142Z,7.70
2018-11-10T18:40:41.122Z,7.67
2018-11-10T18:43:10.038Z,7.69
2018-11-10T18:45:39.024Z,7.68
2018-11-10T18:48:07.966Z,7.60
2018-11-10T18:50:36.921Z,7.56
2018-11-10T18:53:06.038Z,7.56
2018-11-10T18:55:35.003Z,7.55
2018-11-10T18:58:04.032Z,7.56
2018-11-10T19:00:33.710Z,7.51
2018-11-10T19:03:02.711Z,7.53
2018-11-10T19:05:31.658Z,7.53
2018-11-10T19:08:00.634Z,7.50
2018-11-10T19:10:29.565Z,7.47
2018-11-10T19:12:58.574Z,7.47
2018-11-10T19:15:27.517Z,7.54
2018-11-10T19:17:56.484Z,7.50
2018-11-10T19:20:25.430Z,7.51
2018-11-10T19:22:54.564Z,7.50
2018-11-10T19:25:23.536Z,7.48
2018-11-10T19:27:52.474Z,7.45
2018-11-10T19:30:21.765Z,7.39
2018-11-10T19:32:51.299Z,7.39
2018-11-10T19:35:20.610Z,7.35
2018-11-10T19:37:49.567Z,7.31
2018-11-10T19:40:18.536Z,7.29
2018-11-10T19:42:47.839Z,7.26
2018-11-10T19:45:16.853Z,7.23
2018-11-10T19:47:46.571Z,7.22
2018-11-10T19:50:15.979Z,7.18
2018-11-10T19:52:45.047Z,7.15
2018-11-10T19:55:15.689Z,7.10
2018-11-10T19:57:44.716Z,7.05
2018-11-10T20:00:20.394Z,7.01
2018-11-10T20:02:49.390Z,6.93
2018-11-10T20:05:18.675Z,6.89
2018-11-10T20:07:47.768Z,6.87
2018-11-10T20:10:16.790Z,6.79
2018-11-10T20:12:45.962Z,6.77
2018-11-10T20:15:15.746Z,6.73
2018-11-10T20:17:45.071Z,6.66
2018-11-10T20:20:15.648Z,6.65
2018-11-10T20:22:44.778Z,6.62
2018-11-10T20:25:15.244Z,6.59
2018-11-10T20:27:44.223Z,6.60
2018-11-10T20:30:16.189Z,6.57
2018-11-10T20:32:45.284Z,6.59
2018-11-10T20:35:14.707Z,6.61
2018-11-10T20:37:44.466Z,6.58
2018-11-10T20:40:14.290Z,6.56
2018-11-10T20:42:43.534Z,6.49
2018-11-10T20:45:16.326Z,6.46
2018-11-10T20:47:45.254Z,6.39
2018-11-10T20:50:14.765Z,6.35
2018-11-10T20:52:43.746Z,6.31
2018-11-10T20:55:13.243Z,6.27
2018-11-10T20:57:42.236Z,6.26
2018-11-10T21:00:14.610Z,6.22
2018-11-10T21:02:43.931Z,6.18
2018-11-10T21:05:13.431Z,6.15
2018-11-10T21:07:42.399Z,6.05
2018-11-10T21:10:15.412Z,6.01
2018-11-10T21:12:45.172Z,6.01
2018-11-10T21:15:14.612Z,5.97
2018-11-10T21:17:43.635Z,5.97
2018-11-10T21:20:13.272Z,5.89
2018-11-10T21:22:42.437Z,5.85
2018-11-10T21:25:13.259Z,5.83
2018-11-10T21:27:42.550Z,5.85
2018-11-10T21:30:13.021Z,5.81
2018-11-10T21:32:42.310Z,5.78
2018-11-10T21:35:11.480Z,5.77
2018-11-10T21:37:40.331Z,5.78
2018-11-10T21:40:12.192Z,5.74
2018-11-10T21:42:41.516Z,5.72
2018-11-10T21:45:11.383Z,5.71
2018-11-10T21:47:40.697Z,5.69
2018-11-10T21:50:12.350Z,5.66
2018-11-10T21:52:42.024Z,5.69
2018-11-10T21:55:12.562Z,5.69
2018-11-10T21:57:42.003Z,5.68
2018-11-10T22:00:13.642Z,5.65
2018-11-10T22:02:43.336Z,5.60
2018-11-10T22:05:12.490Z,5.60
2018-11-10T22:07:41.430Z,5.58
2018-11-10T22:10:12.587Z,5.55
2018-11-10T22:12:42.645Z,5.53
2018-11-10T22:15:14.265Z,5.51
2018-11-10T22:17:44.062Z,5.51
2018-11-10T22:20:14.221Z,5.48
2018-11-10T22:22:43.189Z,5.47
2018-11-10T22:25:12.928Z,5.42
2018-11-10T22:27:43.070Z,5.39
2018-11-10T22:30:14.530Z,5.40
2018-11-10T22:32:44.181Z,5.39
2018-11-10T22:35:13.210Z,5.43
2018-11-10T22:37:42.186Z,5.39
2018-11-10T22:40:12.639Z,5.40
2018-11-10T22:42:41.957Z,5.36
2018-11-10T22:45:12.470Z,5.33
2018-11-10T22:47:42.099Z,5.36
2018-11-10T22:50:14.546Z,5.37
2018-11-10T22:52:43.970Z,5.42
2018-11-10T22:55:12.903Z,5.47
2018-11-10T22:57:42.094Z,5.46
2018-11-10T23:00:16.915Z,5.49
2018-11-10T23:02:48.549Z,5.46
2018-11-10T23:05:18.051Z,5.43
2018-11-10T23:07:47.006Z,5.40
2018-11-10T23:10:16.481Z,5.42
2018-11-10T23:12:46.488Z,5.42
2018-11-10T23:15:15.502Z,5.39
2018-11-10T23:17:44.466Z,5.43
2018-11-10T23:20:14.642Z,5.39
2018-11-10T23:22:43.664Z,5.35
2018-11-10T23:25:13.888Z,5.37
2018-11-10T23:27:42.879Z,5.34
2018-11-10T23:30:16.106Z,5.35
2018-11-10T23:32:45.106Z,5.30
2018-11-10T23:35:14.148Z,5.22
2018-11-10T23:37:43.170Z,5.15
2018-11-10T23:40:13.712Z,5.10
2018-11-10T23:42:43.023Z,5.09
2018-11-10T23:45:12.501Z,5.06
2018-11-10T23:47:41.473Z,5.06
2018-11-10T23:50:15.419Z,5.08
2018-11-10T23:52:44.398Z,5.03
2018-11-10T23:55:14.277Z,5.03
2018-11-10T23:57:43.223Z,5.02
